Disclaimer

Please do not use the information listed here in-flight or in-navigation, as they are not provided to us by the airports but are provided by volunteers, so they might be outdated.

Search


Regions


Airport information page

Radio informations:
Tower (TWR) - 118.85 MHz
Ground (GND) - 121.9 MHz
Approach (APP) - 120.6 MHz

Airport informations:
Latitude: 34° 33' 33.03" S
Longitude: 058° 24' 56.18" W
Elevation: 18 feet - 5 meters
Operating hours: 24 hour operations
Operating agency: Military-civil joint use airport
Timezone: UTC-3
Fuel: N/A

Runway information:
13/31 - 6890 x 131 feet< - >2100 x 40 meters

Recent METARs:
SABE 202000Z 33010KT CAVOK 28/15 Q1011 NOSIG
SABE 202100Z 33009KT CAVOK 28/15 Q1010 NOSIG
SABE 202100Z 33009KT CAVOK 28/15 Q1010 NOSIG

Airport on the map: